Time;durP1;ratioP1;P1;durP2;ratioP2;P2;SDS_P1;SDS_P2;PMS_P1;PMS_P2;Temp;Humidity;BMP_temperature;BMP_pressure;BME280_temperature;BME280_humidity;BME280_pressure;Samples;Min_cycle;Max_cycle;Signal;HPM_P1;HPM_P2
2022/11/24 00:01:15;;;;;;;;;8.00;5.00;;;;;9.67;71.56;100122.75;4997246;28;45493;-71
2022/11/24 00:03:41;;;;;;;;;7.67;5.67;;;;;10.07;71.82;100200.06;4997368;28;45408;-72
2022/11/24 00:06:09;;;;;;;;;8.00;5.67;;;;;10.27;71.51;100223.81;4996538;28;46303;-70
2022/11/24 00:08:36;;;;;;;;;5.67;4.33;;;;;10.36;71.64;100237.00;4996959;28;45875;-72
2022/11/24 00:11:26;;;;;;;;;8.67;2.33;;;;;10.55;71.44;100259.88;4979349;28;45516;-71
2022/11/24 00:13:51;;;;;;;;;4.67;4.00;;;;;10.64;71.79;100288.22;4995993;28;45242;-71
2022/11/24 00:16:18;;;;;;;;;12.33;6.00;;;;;10.57;71.81;100295.13;4997191;28;45510;-70
2022/11/24 00:18:47;;;;;;;;;7.33;2.67;;;;;9.88;71.92;100167.53;5006977;28;45163;-70
2022/11/24 00:21:14;;;;;;;;;10.33;5.33;;;;;10.67;71.87;100297.69;5016424;28;45313;-71
2022/11/24 00:23:40;;;;;;;;;5.00;5.00;;;;;10.34;71.42;100244.28;5016986;28;45156;-70
2022/11/24 00:26:10;;;;;;;;;9.00;6.33;;;;;10.42;71.30;100250.69;5016412;28;45475;-70
2022/11/24 00:28:36;;;;;;;;;5.33;5.00;;;;;10.75;71.07;100294.25;5018373;28;45561;-70
2022/11/24 00:31:04;;;;;;;;;7.00;5.00;;;;;10.64;71.26;100272.25;5020471;28;45468;-70
2022/11/24 00:33:30;;;;;;;;;5.33;3.00;;;;;10.65;71.38;100257.97;5020088;28;45383;-71
2022/11/24 00:35:57;;;;;;;;;5.33;4.33;;;;;10.48;71.15;100228.78;4999805;28;46743;-71
2022/11/24 00:38:22;;;;;;;;;8.00;5.00;;;;;10.76;70.91;100272.00;5000140;28;45484;-71
2022/11/24 00:40:48;;;;;;;;;5.00;4.00;;;;;10.79;70.92;100253.88;5000141;28;45615;-71
2022/11/24 00:43:13;;;;;;;;;4.33;4.00;;;;;10.83;70.95;100260.59;5000224;28;45516;-68
2022/11/24 00:45:38;;;;;;;;;4.00;2.67;;;;;10.72;70.96;100220.97;4982171;28;47574;-71
2022/11/24 00:48:04;;;;;;;;;6.33;4.67;;;;;10.83;70.22;100230.50;4999779;28;45512;-70
2022/11/24 00:50:29;;;;;;;;;5.33;2.67;;;;;10.78;69.77;100240.75;5000226;28;45369;-70
2022/11/24 00:52:54;;;;;;;;;7.00;3.00;;;;;10.87;69.82;100239.81;5000019;28;45452;-71
2022/11/24 00:55:20;;;;;;;;;4.67;2.00;;;;;10.82;69.60;100237.66;4981993;28;55878;-70
2022/11/24 00:57:45;;;;;;;;;4.00;3.00;;;;;10.96;69.48;100265.47;4999710;28;45388;-72
2022/11/24 01:00:12;;;;;;;;;4.00;4.00;;;;;10.48;68.92;100139.25;4981859;28;45586;-70
2022/11/24 01:02:38;;;;;;;;;6.00;3.33;;;;;10.94;69.30;100231.03;4999819;28;45426;-69
2022/11/24 01:05:04;;;;;;;;;3.00;2.00;;;;;10.83;68.13;100217.22;5011519;28;45480;-71
2022/11/24 01:07:30;;;;;;;;;6.00;3.00;;;;;10.33;68.37;100141.66;5019251;28;45256;-71
2022/11/24 01:09:55;;;;;;;;;2.33;1.33;;;;;10.50;68.29;100166.50;5019380;28;45479;-71
2022/11/24 01:12:20;;;;;;;;;4.00;0.00;;;;;10.78;67.75;100214.16;5019519;28;45376;-71
2022/11/24 01:14:46;;;;;;;;;3.00;2.00;;;;;11.11;66.87;100279.84;5019003;28;46266;-70
2022/11/24 01:17:11;;;;;;;;;3.67;1.00;;;;;11.02;66.85;100256.88;5000939;28;45591;-70
2022/11/24 01:19:36;;;;;;;;;1.67;1.00;;;;;10.71;66.76;100207.81;5019315;28;45207;-71
2022/11/24 01:22:02;;;;;;;;;4.67;2.00;;;;;10.59;66.21;100209.91;5001493;28;45488;-70
2022/11/24 01:24:27;;;;;;;;;3.00;0.00;;;;;11.04;66.44;100297.44;5001111;28;46311;-71
2022/11/24 01:26:52;;;;;;;;;0.67;0.67;;;;;11.05;65.80;100312.41;5018893;28;45225;-71
2022/11/24 01:29:17;;;;;;;;;2.00;0.00;;;;;10.82;66.28;100271.38;5019076;28;45329;-69
2022/11/24 01:31:43;;;;;;;;;2.67;1.00;;;;;10.85;65.74;100287.03;5018625;28;51152;-70
2022/11/24 01:34:08;;;;;;;;;3.00;1.00;;;;;9.93;65.65;100150.16;5012141;28;46925;-70
2022/11/24 01:36:34;;;;;;;;;4.33;1.33;;;;;10.91;65.97;100321.78;5006522;28;45327;-70
2022/11/24 01:38:59;;;;;;;;;0.33;0.33;;;;;10.84;65.92;100304.81;5018476;28;45431;-71
2022/11/24 01:41:25;;;;;;;;;2.33;1.00;;;;;10.63;66.10;100301.66;5019154;28;45432;-70
2022/11/24 01:43:52;;;;;;;;;1.00;0.00;;;;;10.84;66.11;100341.19;5018806;28;45400;-69
2022/11/24 01:46:27;;;;;;;;;1.00;1.00;;;;;10.81;66.45;100347.66;5018708;28;45618;-70
2022/11/24 01:49:16;;;;;;;;;2.33;1.00;;;;;9.83;66.69;100197.22;5018901;28;45436;-69
2022/11/24 01:52:04;;;;;;;;;1.67;1.00;;;;;10.65;66.53;100347.53;5019192;28;45324;-69
2022/11/24 01:54:37;;;;;;;;;0.00;0.00;;;;;10.23;67.37;100295.03;5017969;28;45710;-70
2022/11/24 01:57:16;;;;;;;;;0.00;0.00;;;;;10.54;67.47;100332.66;5018670;28;45500;-71
2022/11/24 01:59:45;;;;;;;;;2.33;1.67;;;;;10.64;67.89;100352.03;5018678;28;45431;-70
2022/11/24 02:02:12;;;;;;;;;1.00;1.00;;;;;10.59;68.43;100348.97;5018720;28;45440;-70
2022/11/24 02:04:37;;;;;;;;;1.00;1.00;;;;;10.30;68.34;100335.09;5009316;28;45249;-69
2022/11/24 02:07:04;;;;;;;;;2.00;0.00;;;;;9.54;68.45;100210.69;4998760;28;45405;-69
2022/11/24 02:09:33;;;;;;;;;0.00;0.00;;;;;10.55;69.23;100390.13;5017931;28;45449;-70
2022/11/24 02:12:01;;;;;;;;;0.00;0.00;;;;;9.86;69.48;100286.34;5000620;28;45487;-70
2022/11/24 02:14:27;;;;;;;;;1.00;0.00;;;;;10.39;69.41;100394.47;5018206;28;45719;-70
2022/11/24 02:16:52;;;;;;;;;1.00;0.00;;;;;10.49;69.77;100395.22;5018663;28;45516;-69
2022/11/24 02:19:40;;;;;;;;;2.00;1.00;;;;;10.44;69.77;100397.53;5017995;28;49951;-70
2022/11/24 02:22:20;;;;;;;;;1.67;0.00;;;;;9.66;70.17;100305.03;5018666;28;45708;-69
2022/11/24 02:25:05;;;;;;;;;4.00;1.33;;;;;10.39;70.29;100405.91;5016679;28;46963;-70
2022/11/24 02:27:31;;;;;;;;;3.33;1.00;;;;;10.40;70.58;100410.25;5018046;28;45513;-72
2022/11/24 02:29:57;;;;;;;;;1.33;0.33;;;;;10.40;70.40;100420.88;5012893;28;45602;-70
2022/11/24 02:32:22;;;;;;;;;1.67;1.00;;;;;9.42;70.28;100263.16;5008467;28;45517;-70
2022/11/24 02:34:48;;;;;;;;;0.33;0.33;;;;;9.63;70.57;100308.00;5017618;28;47321;-70
2022/11/24 02:37:13;;;;;;;;;2.00;1.00;;;;;10.38;70.50;100430.81;5017939;28;45450;-71
2022/11/24 02:39:38;;;;;;;;;2.00;0.67;;;;;10.18;70.66;100397.38;5018153;28;45450;-70
2022/11/24 02:42:09;;;;;;;;;2.00;1.00;;;;;10.29;70.77;100432.56;5017851;28;45197;-70
2022/11/24 02:44:40;;;;;;;;;0.00;0.00;;;;;9.55;71.47;100304.41;5017767;28;46159;-69
2022/11/24 02:47:08;;;;;;;;;0.67;0.67;;;;;10.35;71.30;100458.53;5017830;28;45447;-70
2022/11/24 02:49:33;;;;;;;;;1.00;1.00;;;;;10.25;71.75;100430.38;5017796;28;45489;-70
2022/11/24 02:51:59;;;;;;;;;2.00;1.00;;;;;10.29;72.00;100453.00;5017177;28;45307;-71
2022/11/24 02:54:24;;;;;;;;;3.00;1.33;;;;;9.91;72.05;100412.34;5018258;28;45612;-70
2022/11/24 02:56:50;;;;;;;;;2.00;1.00;;;;;10.36;72.67;100497.41;5017816;28;45262;-69
2022/11/24 02:59:15;;;;;;;;;1.33;1.33;;;;;10.36;72.58;100491.25;4999556;28;45261;-70
2022/11/24 03:01:41;;;;;;;;;3.67;1.00;;;;;10.30;72.25;100484.72;5016576;28;45530;-69
2022/11/24 03:04:06;;;;;;;;;2.00;1.00;;;;;10.15;72.82;100462.25;4999667;28;47716;-70
2022/11/24 03:06:32;;;;;;;;;2.00;1.00;;;;;10.21;72.40;100466.16;5017513;28;45468;-70
2022/11/24 03:08:57;;;;;;;;;2.67;1.67;;;;;10.27;73.27;100498.31;5017543;28;45404;-70
2022/11/24 03:11:22;;;;;;;;;1.33;1.33;;;;;10.27;73.30;100511.59;5017633;28;45237;-70
2022/11/24 03:13:49;;;;;;;;;3.67;1.33;;;;;10.18;73.47;100508.94;5017104;28;48211;-70
2022/11/24 03:16:15;;;;;;;;;2.00;1.00;;;;;10.12;73.54;100498.91;5017443;28;45424;-70
2022/11/24 03:18:40;;;;;;;;;6.00;3.00;;;;;9.45;72.98;100403.47;5017700;28;45388;-70
2022/11/24 03:21:05;;;;;;;;;2.67;2.00;;;;;9.89;73.34;100474.56;5017664;28;45424;-71
2022/11/24 03:23:31;;;;;;;;;4.67;2.00;;;;;9.96;73.78;100507.50;5017088;28;46264;-70
2022/11/24 03:26:09;;;;;;;;;1.00;1.00;;;;;9.83;73.74;100472.50;5017476;28;45467;-70
2022/11/24 03:28:34;;;;;;;;;1.67;1.67;;;;;10.17;73.75;100539.16;5017218;28;45261;-70
2022/11/24 03:31:01;;;;;;;;;7.00;5.00;;;;;10.02;74.28;100514.91;5016573;28;45768;-68
2022/11/24 03:33:26;;;;;;;;;5.33;2.33;;;;;10.11;74.00;100545.06;5017005;28;45537;-70
2022/11/24 03:35:51;;;;;;;;;3.00;2.00;;;;;10.11;74.08;100537.94;5017053;28;45490;-70
2022/11/24 03:38:17;;;;;;;;;4.33;2.00;;;;;10.09;73.82;100531.09;5017420;28;45487;-69
2022/11/24 03:40:42;;;;;;;;;2.00;2.00;;;;;10.03;73.97;100527.19;5016994;28;50957;-69
2022/11/24 03:43:07;;;;;;;;;1.67;1.00;;;;;9.99;74.15;100513.34;5016618;28;55392;-71
2022/11/24 03:45:33;;;;;;;;;5.67;2.33;;;;;10.06;74.01;100538.38;5016619;28;54056;-71
2022/11/24 03:47:58;;;;;;;;;5.33;3.00;;;;;10.09;74.08;100544.38;5016823;28;50361;-70
2022/11/24 03:50:23;;;;;;;;;4.00;1.67;;;;;9.58;73.60;100455.38;4999443;28;45377;-69
2022/11/24 03:52:48;;;;;;;;;4.00;3.00;;;;;10.07;73.45;100540.03;5016922;28;45245;-71
2022/11/24 03:55:14;;;;;;;;;0.00;0.00;;;;;9.09;73.24;100378.59;5016717;28;45474;-70
2022/11/24 03:57:39;;;;;;;;;0.33;0.33;;;;;10.00;73.64;100548.72;5017074;28;45808;-69
2022/11/24 04:00:05;;;;;;;;;2.67;2.00;;;;;10.01;73.79;100545.94;5007862;28;45559;-70
2022/11/24 04:02:31;;;;;;;;;1.33;1.33;;;;;10.03;74.02;100559.91;4997127;28;47929;-70
2022/11/24 04:04:56;;;;;;;;;4.33;2.00;;;;;10.02;73.80;100554.75;4982763;28;45457;-71
2022/11/24 04:07:21;;;;;;;;;2.33;0.33;;;;;9.71;73.75;100511.66;4983013;28;45267;-69
2022/11/24 04:09:47;;;;;;;;;3.00;2.00;;;;;9.52;73.61;100485.16;5000836;28;45392;-71
2022/11/24 04:13:12;;;;;;;;;2.67;1.00;;;;;10.00;74.00;100562.84;4982170;28;54589;-71
2022/11/24 04:15:07;;;;;;;;;2.00;2.00;;;;;9.83;73.83;100552.97;4991005;28;45523;-71
2022/11/24 04:17:32;;;;;;;;;5.00;1.67;;;;;9.66;74.02;100517.41;5000313;28;45243;-69
2022/11/24 04:19:57;;;;;;;;;7.33;2.33;;;;;8.67;74.01;100385.22;5000458;28;45319;-70
2022/11/24 04:22:23;;;;;;;;;3.33;2.00;;;;;9.95;73.96;100575.72;4999963;28;52476;-72
2022/11/24 04:24:48;;;;;;;;;4.33;1.00;;;;;9.35;74.04;100484.06;5015468;28;45488;-70
2022/11/24 04:27:13;;;;;;;;;3.67;1.00;;;;;9.87;74.41;100569.47;5019939;28;47841;-70
2022/11/24 04:29:39;;;;;;;;;2.00;2.00;;;;;9.47;74.37;100508.63;5020275;28;45495;-71
2022/11/24 04:32:05;;;;;;;;;3.33;1.00;;;;;9.66;74.46;100556.38;5019727;28;46434;-71
2022/11/24 04:34:30;;;;;;;;;3.00;1.67;;;;;9.54;74.44;100546.88;5019672;28;45507;-70
2022/11/24 04:36:55;;;;;;;;;3.00;1.00;;;;;9.72;74.63;100571.72;5002127;28;45216;-69
2022/11/24 04:39:20;;;;;;;;;1.33;1.33;;;;;9.82;74.71;100604.41;5020018;28;45387;-71
2022/11/24 04:41:47;;;;;;;;;1.67;1.67;;;;;9.30;74.42;100519.00;5019781;28;46631;-70
2022/11/24 04:44:12;;;;;;;;;4.67;2.67;;;;;9.71;74.89;100585.97;5019687;28;45428;-70
2022/11/24 04:46:37;;;;;;;;;3.67;1.00;;;;;9.62;74.63;100587.69;5020034;28;45465;-69
2022/11/24 04:49:03;;;;;;;;;2.00;1.33;;;;;9.65;74.50;100589.22;5019998;28;45838;-70
2022/11/24 04:51:29;;;;;;;;;4.67;2.00;;;;;9.49;74.40;100559.75;5001578;28;48522;-71
2022/11/24 04:53:54;;;;;;;;;2.67;1.00;;;;;9.76;74.73;100610.28;4997422;28;45413;-71
2022/11/24 04:56:19;;;;;;;;;1.33;1.33;;;;;9.76;74.71;100616.41;4998486;28;45547;-70
2022/11/24 04:58:47;;;;;;;;;4.67;3.00;;;;;9.31;74.40;100541.03;5000427;28;45475;-70
2022/11/24 05:01:13;;;;;;;;;1.67;1.00;;;;;9.73;74.67;100615.88;4998277;28;46559;-71
2022/11/24 05:03:39;;;;;;;;;1.00;1.00;;;;;9.00;74.69;100527.06;4999208;28;45843;-69
2022/11/24 05:06:05;;;;;;;;;5.00;2.00;;;;;8.58;74.33;100433.72;4999660;28;45560;-69
2022/11/24 05:08:30;;;;;;;;;2.00;1.00;;;;;9.35;74.07;100561.84;4982179;28;45340;-70
2022/11/24 05:10:55;;;;;;;;;2.00;2.00;;;;;9.69;74.16;100623.28;4999342;28;45699;-71
2022/11/24 05:13:21;;;;;;;;;2.00;2.00;;;;;9.54;73.89;100610.56;4980640;28;46273;-69
2022/11/24 05:15:46;;;;;;;;;1.00;1.00;;;;;9.59;73.67;100597.72;4999174;28;45390;-71
2022/11/24 05:18:15;;;;;;;;;4.00;1.00;;;;;9.42;74.08;100581.56;4999680;28;45407;-69
2022/11/24 05:20:40;;;;;;;;;2.00;1.00;;;;;9.13;73.88;100533.78;4999081;28;46904;-70
2022/11/24 05:23:07;;;;;;;;;4.00;2.33;;;;;9.73;73.62;100623.84;4998713;28;45453;-70
2022/11/24 05:25:33;;;;;;;;;2.00;2.00;;;;;9.58;73.96;100609.31;5017349;28;45502;-70
2022/11/24 05:28:01;;;;;;;;;3.67;2.33;;;;;9.71;73.64;100639.06;5019260;28;45328;-70
2022/11/24 05:30:27;;;;;;;;;2.00;1.67;;;;;9.50;74.08;100617.16;5019070;28;46499;-70
2022/11/24 05:32:52;;;;;;;;;2.00;2.00;;;;;9.22;74.46;100574.56;5018927;28;45387;-70
2022/11/24 05:35:18;;;;;;;;;3.33;2.67;;;;;9.32;74.19;100591.31;5018540;28;45760;-69
2022/11/24 05:37:43;;;;;;;;;0.00;0.00;;;;;9.53;74.21;100619.53;5018892;28;45191;-68
2022/11/24 05:40:09;;;;;;;;;3.00;3.00;;;;;9.66;74.06;100649.28;5018639;28;46363;-70
2022/11/24 05:42:40;;;;;;;;;6.00;3.00;;;;;8.71;74.44;100485.50;5018774;28;45285;-70
2022/11/24 05:45:10;;;;;;;;;4.67;2.00;;;;;9.63;74.89;100646.91;5000822;28;45369;-70
2022/11/24 05:47:36;;;;;;;;;5.33;3.00;;;;;9.64;74.69;100656.53;5018764;28;45400;-69
2022/11/24 05:50:01;;;;;;;;;3.33;3.00;;;;;9.43;74.73;100635.47;5018603;28;46271;-71
2022/11/24 05:52:27;;;;;;;;;5.00;4.00;;;;;9.32;75.20;100623.16;5018565;28;45400;-71
2022/11/24 05:54:52;;;;;;;;;2.00;2.00;;;;;9.52;74.82;100668.28;5001256;28;45479;-71
2022/11/24 05:57:17;;;;;;;;;4.00;3.00;;;;;9.56;74.82;100674.97;4998588;28;45366;-70
2022/11/24 05:59:43;;;;;;;;;1.67;1.67;;;;;9.47;75.19;100658.06;4998207;28;46622;-69
2022/11/24 06:02:08;;;;;;;;;1.33;1.00;;;;;8.99;74.72;100584.56;4980964;28;45826;-70
2022/11/24 06:04:34;;;;;;;;;7.00;1.00;;;;;9.21;74.80;100628.59;4998849;28;45199;-70
2022/11/24 06:07:00;;;;;;;;;2.00;0.00;;;;;9.44;75.03;100667.16;4998695;28;45468;-71
2022/11/24 06:09:25;;;;;;;;;5.33;1.00;;;;;9.43;75.32;100672.59;4998193;28;45903;-71
2022/11/24 06:11:51;;;;;;;;;4.00;2.00;;;;;9.51;75.15;100691.31;4993534;28;45217;-72
2022/11/24 06:14:16;;;;;;;;;1.33;1.00;;;;;8.59;75.08;100528.16;4993691;28;45362;-70
2022/11/24 06:16:41;;;;;;;;;1.00;1.00;;;;;9.41;75.36;100664.78;4978735;28;45658;-69
2022/11/24 06:19:09;;;;;;;;;2.67;1.67;;;;;9.37;75.12;100676.63;4978849;28;46418;-70
2022/11/24 06:21:34;;;;;;;;;2.00;2.00;;;;;8.93;75.69;100600.22;4978852;28;45573;-71
2022/11/24 06:23:59;;;;;;;;;3.00;3.00;;;;;9.47;75.42;100686.44;4978744;28;45412;-70
2022/11/24 06:26:25;;;;;;;;;1.67;1.67;;;;;9.43;75.59;100689.38;4978647;28;45463;-71
2022/11/24 06:28:51;;;;;;;;;1.33;1.33;;;;;9.33;75.54;100672.56;4978452;28;45751;-72
2022/11/24 06:31:16;;;;;;;;;2.67;1.33;;;;;8.91;75.89;100610.94;4978192;28;45251;-70
2022/11/24 06:33:41;;;;;;;;;2.33;2.33;;;;;9.28;75.51;100669.50;4993580;28;45482;-72
2022/11/24 06:36:11;;;;;;;;;4.67;3.33;;;;;9.09;75.51;100653.56;4978444;28;45455;-70
2022/11/24 06:38:37;;;;;;;;;1.67;1.00;;;;;9.42;75.68;100697.47;4978117;28;45473;-70
2022/11/24 06:41:05;;;;;;;;;4.33;3.00;;;;;9.38;75.68;100702.19;4978039;28;45528;-71
2022/11/24 06:43:31;;;;;;;;;4.00;3.00;;;;;9.37;75.65;100704.97;4979935;28;45458;-70
2022/11/24 06:45:57;;;;;;;;;2.00;2.00;;;;;8.61;75.99;100590.66;4991248;28;45370;-71
2022/11/24 06:48:24;;;;;;;;;3.00;1.00;;;;;8.60;75.91;100588.97;4977948;28;45849;-70
2022/11/24 06:50:52;;;;;;;;;3.00;2.00;;;;;9.40;75.63;100726.75;5005479;28;45515;-72
2022/11/24 06:53:18;;;;;;;;;4.00;3.00;;;;;9.19;76.10;100696.84;4997517;28;45440;-70
2022/11/24 06:55:45;;;;;;;;;1.00;1.00;;;;;9.12;75.91;100683.28;4993998;28;45387;-71
2022/11/24 06:58:10;;;;;;;;;5.67;2.00;;;;;9.39;76.21;100740.16;4977980;28;45772;-70
2022/11/24 07:00:37;;;;;;;;;5.33;3.00;;;;;9.34;76.29;100727.31;4977000;28;45676;-71
2022/11/24 07:03:02;;;;;;;;;4.67;3.67;;;;;8.59;76.69;100613.78;4978435;28;45554;-71
2022/11/24 07:05:27;;;;;;;;;4.00;2.00;;;;;9.34;76.51;100747.69;4978509;28;45194;-72
2022/11/24 07:07:53;;;;;;;;;3.67;2.00;;;;;8.14;76.37;100555.88;4976565;28;47424;-72
2022/11/24 07:10:18;;;;;;;;;7.33;4.33;;;;;9.37;76.54;100769.50;4977003;28;45975;-71
2022/11/24 07:12:44;;;;;;;;;9.33;3.33;;;;;9.06;76.48;100707.72;4995020;28;45421;-71
2022/11/24 07:15:10;;;;;;;;;3.33;3.00;;;;;9.19;76.47;100749.03;4995818;28;45537;-71
2022/11/24 07:17:39;;;;;;;;;4.67;3.00;;;;;9.24;76.48;100747.69;5016962;28;45650;-70
2022/11/24 07:20:05;;;;;;;;;5.00;2.67;;;;;9.30;76.91;100768.38;5015424;28;45512;-69
2022/11/24 07:22:31;;;;;;;;;8.00;2.67;;;;;9.07;76.62;100729.75;5006798;28;45597;-73
2022/11/24 07:24:56;;;;;;;;;8.33;3.00;;;;;9.23;76.97;100777.84;4999297;28;45481;-73
2022/11/24 07:27:22;;;;;;;;;4.00;3.00;;;;;9.13;77.11;100742.47;4998485;28;46108;-73
2022/11/24 07:29:47;;;;;;;;;3.33;3.33;;;;;9.33;76.99;100784.00;5015628;28;45478;-72
2022/11/24 07:32:12;;;;;;;;;1.33;1.33;;;;;9.35;77.13;100795.31;5037354;28;45335;-71
2022/11/24 07:34:38;;;;;;;;;7.00;3.00;;;;;9.41;77.17;100794.81;5036620;28;45401;-72
2022/11/24 07:37:03;;;;;;;;;10.00;5.00;;;;;8.99;77.02;100717.16;5034725;28;47898;-72
2022/11/24 07:39:29;;;;;;;;;5.33;4.00;;;;;9.51;76.73;100792.16;5036767;28;45328;-71
2022/11/24 07:41:54;;;;;;;;;6.33;5.00;;;;;9.49;76.52;100782.66;5037310;28;45460;-70
2022/11/24 07:44:19;;;;;;;;;4.33;3.67;;;;;8.79;76.30;100663.22;5027444;28;45496;-72
2022/11/24 07:46:45;;;;;;;;;4.00;4.00;;;;;8.57;75.90;100621.03;5016474;28;55526;-71
2022/11/24 07:49:10;;;;;;;;;6.67;5.00;;;;;9.39;76.30;100756.94;5016804;28;45451;-70
2022/11/24 07:51:36;;;;;;;;;6.00;3.00;;;;;9.15;76.21;100722.78;5016864;28;45236;-72
2022/11/24 07:54:01;;;;;;;;;3.67;3.67;;;;;9.63;76.15;100816.78;4999591;28;45610;-71
2022/11/24 07:56:27;;;;;;;;;7.00;4.67;;;;;9.68;75.62;100825.19;5017821;28;45666;-72
2022/11/24 07:58:56;;;;;;;;;7.67;5.00;;;;;9.73;75.75;100817.63;5017729;28;45264;-69
2022/11/24 08:01:21;;;;;;;;;8.67;5.67;;;;;9.76;76.11;100827.97;5017137;28;45286;-70
2022/11/24 08:03:47;;;;;;;;;7.67;6.00;;;;;9.77;76.17;100840.28;4998930;28;45503;-71
2022/11/24 08:06:13;;;;;;;;;6.00;5.00;;;;;9.66;76.38;100837.75;4998955;28;47914;-71
2022/11/24 08:08:38;;;;;;;;;6.00;4.33;;;;;9.67;76.32;100815.53;5016979;28;45520;-71
2022/11/24 08:11:09;;;;;;;;;9.33;5.00;;;;;8.84;76.22;100666.34;5016746;28;45443;-71
2022/11/24 08:13:35;;;;;;;;;6.00;4.00;;;;;9.74;75.99;100814.00;5014551;28;45231;-71
2022/11/24 08:16:12;;;;;;;;;5.67;5.33;;;;;9.17;75.81;100709.41;4996731;28;45853;-72
2022/11/24 08:18:38;;;;;;;;;14.00;8.00;;;;;10.05;76.22;100855.44;4995327;28;45800;-71
2022/11/24 08:21:04;;;;;;;;;9.67;9.00;;;;;10.09;75.49;100828.59;4997103;28;45410;-72
2022/11/24 08:23:31;;;;;;;;;9.67;6.00;;;;;10.29;74.81;100868.34;4997260;28;45290;-71
2022/11/24 08:26:01;;;;;;;;;8.33;5.00;;;;;9.74;74.67;100761.75;4997267;28;45765;-71
2022/11/24 08:28:27;;;;;;;;;7.00;7.00;;;;;10.19;74.93;100824.09;4997671;28;45429;-69
2022/11/24 08:30:59;;;;;;;;;9.33;8.67;;;;;10.34;74.54;100849.31;4997408;28;45445;-72
2022/11/24 08:33:25;;;;;;;;;9.33;7.00;;;;;10.22;74.55;100815.91;4979604;28;45198;-71
2022/11/24 08:35:50;;;;;;;;;8.00;5.67;;;;;10.37;74.25;100833.09;4979064;28;46454;-71
2022/11/24 08:38:16;;;;;;;;;5.67;4.67;;;;;10.69;74.41;100898.44;4979063;28;45329;-72
2022/11/24 08:40:41;;;;;;;;;12.00;8.00;;;;;10.75;74.17;100884.56;4997335;28;45306;-72
2022/11/24 08:43:06;;;;;;;;;5.33;5.00;;;;;10.80;73.91;100877.00;4996611;28;45608;-72
2022/11/24 08:45:32;;;;;;;;;6.33;5.33;;;;;10.80;73.13;100869.84;4998145;28;46462;-72
2022/11/24 08:47:57;;;;;;;;;8.67;7.00;;;;;10.39;73.28;100812.53;4998099;28;46005;-71
2022/11/24 08:50:24;;;;;;;;;10.67;9.00;;;;;10.47;73.54;100799.38;5001163;28;45453;-70
2022/11/24 08:52:51;;;;;;;;;7.67;3.00;;;;;10.85;73.07;100826.91;5016402;28;45203;-73
2022/11/24 08:55:17;;;;;;;;;1.67;0.67;;;;;10.92;72.51;100812.03;5002459;28;47393;-72
2022/11/24 08:57:42;;;;;;;;;5.67;4.67;;;;;11.55;71.38;100846.78;5019206;28;45172;-71
2022/11/24 09:00:08;;;;;;;;;4.00;4.00;;;;;12.21;69.85;100837.72;5001523;28;45275;-72
2022/11/24 09:02:34;;;;;;;;;6.00;4.00;;;;;12.39;67.69;100788.72;5002218;28;45595;-70
2022/11/24 09:04:59;;;;;;;;;5.00;4.33;;;;;12.76;67.52;100865.03;5001547;28;47288;-72
2022/11/24 09:07:24;;;;;;;;;5.00;4.00;;;;;12.89;67.10;100876.13;5019504;28;45259;-70
2022/11/24 09:09:50;;;;;;;;;5.00;5.00;;;;;12.08;66.52;100752.81;5019536;28;45463;-71
2022/11/24 09:12:15;;;;;;;;;7.00;6.00;;;;;12.57;66.82;100830.53;5019794;28;45386;-71
2022/11/24 09:14:41;;;;;;;;;4.67;4.33;;;;;12.61;66.45;100854.06;5019256;28;45566;-72
2022/11/24 09:17:06;;;;;;;;;5.00;4.00;;;;;12.23;66.40;100798.44;5019656;28;45406;-71
2022/11/24 09:19:31;;;;;;;;;9.00;7.00;;;;;12.56;67.18;100860.84;5002011;28;45305;-70
2022/11/24 09:21:57;;;;;;;;;7.67;5.33;;;;;12.42;66.53;100841.75;4994493;28;45460;-72
2022/11/24 09:24:22;;;;;;;;;7.67;4.00;;;;;12.19;67.27;100803.22;4982517;28;47461;-72
2022/11/24 09:26:48;;;;;;;;;4.67;3.00;;;;;11.41;67.55;100668.91;5000256;28;45422;-72
2022/11/24 09:29:13;;;;;;;;;6.33;5.67;;;;;12.36;67.55;100853.03;5000243;28;45865;-72
2022/11/24 09:31:39;;;;;;;;;6.67;6.67;;;;;12.44;67.03;100874.44;5000485;28;45401;-71
2022/11/24 09:34:12;;;;;;;;;6.33;6.00;;;;;12.34;67.62;100848.84;4999062;28;47997;-72
2022/11/24 09:36:38;;;;;;;;;6.00;4.67;;;;;12.47;67.55;100868.81;4999576;28;45489;-72
2022/11/24 09:39:03;;;;;;;;;9.67;6.00;;;;;12.43;67.55;100864.78;4999494;28;45427;-72
2022/11/24 09:41:57;;;;;;;;;4.00;4.00;;;;;12.26;67.25;100830.94;4981743;28;45575;-71
2022/11/24 09:44:52;;;;;;;;;8.67;4.67;;;;;12.49;67.81;100871.31;4978477;28;45746;-70
2022/11/24 09:47:23;;;;;;;;;5.00;5.00;;;;;12.49;67.52;100872.16;5013875;28;45441;-73
2022/11/24 09:49:56;;;;;;;;;7.00;4.33;;;;;12.41;67.12;100861.41;5018742;28;45541;-72
2022/11/24 09:52:38;;;;;;;;;3.67;3.67;;;;;12.45;67.60;100884.13;5014387;28;45366;-70
2022/11/24 09:55:13;;;;;;;;;4.00;4.00;;;;;12.43;67.52;100864.78;5018840;28;47794;-72
2022/11/24 09:57:42;;;;;;;;;7.67;5.00;;;;;12.32;67.66;100874.81;5019285;28;45418;-70
2022/11/24 10:00:12;;;;;;;;;4.33;4.00;;;;;11.35;67.71;100714.78;5006624;28;45417;-71
2022/11/24 10:02:38;;;;;;;;;4.00;4.00;;;;;11.24;67.72;100711.34;4994206;28;45439;-72
2022/11/24 10:05:04;;;;;;;;;7.33;4.67;;;;;11.67;68.25;100789.69;5005501;28;45381;-73
2022/11/24 10:07:42;;;;;;;;;8.33;7.00;;;;;12.30;68.12;100916.78;5017048;28;46257;-70
2022/11/24 10:10:18;;;;;;;;;4.00;3.00;;;;;12.16;68.49;100916.31;5017203;28;45389;-71
2022/11/24 10:13:16;;;;;;;;;5.00;4.00;;;;;12.10;69.40;100916.06;5017407;28;45644;-71
2022/11/24 10:15:45;;;;;;;;;6.67;4.67;;;;;12.12;69.36;100887.44;5012736;28;46750;-72
2022/11/24 10:18:30;;;;;;;;;8.33;5.33;;;;;12.06;69.33;100915.53;5018492;28;45467;-71
2022/11/24 10:21:23;;;;;;;;;8.00;6.67;;;;;11.02;69.40;100725.06;4996039;28;46102;-72
2022/11/24 10:24:19;;;;;;;;;4.33;4.00;;;;;11.70;69.14;100833.81;5006666;28;45522;-71
2022/11/24 10:27:00;;;;;;;;;6.00;4.00;;;;;11.11;70.04;100748.09;5000552;28;46463;-72
2022/11/24 10:29:33;;;;;;;;;6.00;4.00;;;;;11.88;69.59;100870.19;5017291;28;45245;-70
2022/11/24 10:32:02;;;;;;;;;6.00;5.00;;;;;11.63;69.87;100838.09;5017121;28;45262;-72
2022/11/24 10:34:42;;;;;;;;;10.33;8.67;;;;;11.78;70.40;100863.22;5018164;28;45476;-72
2022/11/24 10:37:10;;;;;;;;;11.33;8.33;;;;;11.77;70.26;100865.03;5017312;28;45619;-73
2022/11/24 10:39:48;;;;;;;;;8.00;5.33;;;;;11.73;70.71;100861.00;5013077;28;45662;-71
2022/11/24 10:42:19;;;;;;;;;4.00;4.00;;;;;11.74;70.36;100868.00;5014929;28;45332;-72
2022/11/24 10:44:45;;;;;;;;;5.33;4.00;;;;;11.14;70.83;100769.09;5017501;28;46507;-72
2022/11/24 10:47:21;;;;;;;;;5.67;4.00;;;;;11.36;70.26;100778.50;5033065;28;48021;-72
2022/11/24 10:50:03;;;;;;;;;4.00;3.00;;;;;11.70;70.54;100834.66;5017897;28;45442;-72
2022/11/24 10:52:35;;;;;;;;;7.33;6.00;;;;;11.79;70.74;100847.09;5014189;28;45399;-70
2022/11/24 10:55:04;;;;;;;;;5.67;5.67;;;;;11.31;70.71;100766.63;5018399;28;45233;-73
2022/11/24 10:57:31;;;;;;;;;9.33;6.67;;;;;11.80;70.97;100846.13;5000478;28;46553;-73
2022/11/24 10:59:57;;;;;;;;;8.00;7.00;;;;;11.81;70.40;100846.94;5008205;28;45539;-72
2022/11/24 11:02:33;;;;;;;;;7.67;6.00;;;;;11.81;70.55;100842.50;4998055;28;45313;-72
2022/11/24 11:05:24;;;;;;;;;5.00;5.00;;;;;11.69;70.75;100813.50;4999491;28;45227;-72
2022/11/24 11:07:49;;;;;;;;;9.00;9.00;;;;;11.84;70.45;100842.19;5013157;28;47136;-73
2022/11/24 11:10:23;;;;;;;;;5.67;5.67;;;;;11.84;70.63;100836.88;5022917;28;45419;-74
2022/11/24 11:12:48;;;;;;;;;5.00;5.00;;;;;11.88;69.94;100832.91;5010533;28;46447;-71
2022/11/24 11:15:34;;;;;;;;;9.67;6.33;;;;;11.86;70.48;100818.91;4997903;28;45471;-74
2022/11/24 11:18:00;;;;;;;;;12.67;9.33;;;;;11.79;69.91;100806.31;5014447;28;45566;-72
2022/11/24 11:20:31;;;;;;;;;13.67;8.00;;;;;11.78;70.08;100824.13;5017420;28;45306;-72
2022/11/24 11:23:00;;;;;;;;;10.00;8.00;;;;;11.96;70.53;100818.81;5017293;28;45491;-72
2022/11/24 11:25:34;;;;;;;;;8.00;6.33;;;;;11.94;70.08;100823.47;5016765;28;45567;-71
2022/11/24 11:28:22;;;;;;;;;10.00;9.00;;;;;11.92;70.27;100813.94;5016241;28;46348;-74
2022/11/24 11:31:05;;;;;;;;;9.00;6.33;;;;;11.84;69.56;100794.25;5017289;28;45327;-71
2022/11/24 11:33:32;;;;;;;;;11.00;8.33;;;;;12.04;69.57;100799.44;5009225;28;45298;-73